« 定点 富山空港 2019/8/7 wed | トップページ | 第7師団創隊64周年・東千歳駐屯地創立65周年記念行事【装備品展示】 2019/5/26 sun »

2019/08/10

定点 富山空港 2019/8/10 sat

世間は、今日土曜からお盆休みモード突入

RJNT 092347Z VRB02KT 9999 FEW030 BKN/// 32/25 Q1008 RMK 1CU030 A2979

20190810_rjnt_00ja84an

20190810_rjnt_01ja84an

ANA313 RJTT-RJNT JA84AN B737-881

RJNT 092347Z VRB02KT 9999 FEW030 BKN/// 32/25 Q1008 RMK 1CU030 A2979

20190810_rjnt_02ja10ym

JA10YM A10SP SAK 富山県ドクターヘリ

20190810_rjnt_03ja6768

とやまさん始業点検

20190810_rjnt_04ja84an

20190810_rjnt_05ja84an

ANA316 RJNT-RJTT JA84AN B737-881

20190810_rjnt_06ja84an

20190810_rjnt_07ja6768

さて出動です。

20190810_rjnt_08ja6768

20190810_rjnt_09ja6768

JA6768 B412EP 富山県消防防災

20190810_rjnt_10ja6768

RJNT 100100Z 32003KT 280V040 9999 FEW030 SCT/// 32/23 Q1008

20190810_rjnt_11ja112a

20190810_rjnt_12ja112a

ANA315 RJTT-RJNT JA112A A321-211

20190810_rjnt_13b9951

20190810_rjnt_14b9951

CSN613 ZYTL-RJNT B-9951 A320-232

RJNT 100200Z VRB02KT 9999 FEW030 SCT/// 34/23 Q1008

20190810_rjnt_15semi

蝉がさかんに鳴いている盛夏

RJNT 100300Z 36010KT 9999 FEW030 SCT050 34/24 Q1008

20190810_rjnt_16ja112a

20190810_rjnt_17ja112a

ANA1181 RJNT-RJCC JA112A A321-211

RJNT 100400Z 36010KT 9999 FEW030 34/23 Q1007

20190810_rjnt_18b9951

CSN614 RJNT-ZYTL B-9951 A320-232

本日は、赤いヤツは台風で欠航です。

|

« 定点 富山空港 2019/8/7 wed | トップページ | 第7師団創隊64周年・東千歳駐屯地創立65周年記念行事【装備品展示】 2019/5/26 sun »

富山空港」カテゴリの記事

コメント

コメントを書く



(ウェブ上には掲載しません)


コメントは記事投稿者が公開するまで表示されません。



« 定点 富山空港 2019/8/7 wed | トップページ | 第7師団創隊64周年・東千歳駐屯地創立65周年記念行事【装備品展示】 2019/5/26 sun »